sensor_id;sensor_type;location;lat;lon;timestamp;pressure;altitude;pressure_sealevel;temperature;humidity
49945;BME280;35838;49.134;9.212;2023-04-04T03:08:21;100778.28;;;1.83;51.98
49945;BME280;35838;49.134;9.212;2023-04-04T03:09:55;100779.97;;;1.83;51.86
49945;BME280;35838;49.134;9.212;2023-04-04T03:11:29;100778.03;;;1.77;51.82
49945;BME280;35838;49.134;9.212;2023-04-04T03:13:03;100773.06;;;1.80;52.11
49945;BME280;35838;49.134;9.212;2023-04-04T03:14:36;100777.13;;;1.77;51.95
49945;BME280;35838;49.134;9.212;2023-04-04T03:16:10;100778.03;;;1.77;51.71
49945;BME280;35838;49.134;9.212;2023-04-04T03:17:44;100780.84;;;1.83;51.94
49945;BME280;35838;49.134;9.212;2023-04-04T03:19:18;100775.66;;;1.82;51.88
49945;BME280;35838;49.134;9.212;2023-04-04T03:20:52;100773.22;;;1.65;52.14
49945;BME280;35838;49.134;9.212;2023-04-04T03:22:25;100778.81;;;1.76;51.87
49945;BME280;35838;49.134;9.212;2023-04-04T03:24:02;100776.09;;;1.73;51.93
49945;BME280;35838;49.134;9.212;2023-04-04T03:25:35;100781.09;;;1.70;52.02
49945;BME280;35838;49.134;9.212;2023-04-04T03:27:09;100780.75;;;1.62;52.67
49945;BME280;35838;49.134;9.212;2023-04-04T03:28:40;100778.41;;;1.67;52.64
49945;BME280;35838;49.134;9.212;2023-04-04T03:30:14;100774.44;;;1.55;52.46
49945;BME280;35838;49.134;9.212;2023-04-04T03:31:45;100772.63;;;1.53;52.74
49945;BME280;35838;49.134;9.212;2023-04-04T03:33:19;100774.56;;;1.57;52.64
49945;BME280;35838;49.134;9.212;2023-04-04T03:34:53;100772.63;;;1.53;52.58
49945;BME280;35838;49.134;9.212;2023-04-04T03:36:26;100771.63;;;1.49;53.21
49945;BME280;35838;49.134;9.212;2023-04-04T03:38:00;100761.00;;;1.60;52.59
49945;BME280;35838;49.134;9.212;2023-04-04T03:39:34;100774.88;;;1.65;52.50
49945;BME280;35838;49.134;9.212;2023-04-04T03:41:08;100774.13;;;1.48;52.90
49945;BME280;35838;49.134;9.212;2023-04-04T03:42:39;100771.63;;;1.49;53.03
49945;BME280;35838;49.134;9.212;2023-04-04T03:44:13;100776.59;;;1.46;53.79
49945;BME280;35838;49.134;9.212;2023-04-04T03:45:46;100770.75;;;1.49;53.44
49945;BME280;35838;49.134;9.212;2023-04-04T03:47:20;100774.44;;;1.36;53.67
49945;BME280;35838;49.134;9.212;2023-04-04T03:48:53;100775.88;;;1.31;53.66
49945;BME280;35838;49.134;9.212;2023-04-04T03:50:27;100768.34;;;1.34;53.59
49945;BME280;35838;49.134;9.212;2023-04-04T03:52:01;100772.50;;;1.32;54.16
49945;BME280;35838;49.134;9.212;2023-04-04T03:53:33;100771.28;;;1.23;54.05
49945;BME280;35838;49.134;9.212;2023-04-04T03:55:09;100773.09;;;1.26;53.98
49945;BME280;35838;49.134;9.212;2023-04-04T03:56:43;100773.03;;;1.24;54.06
49945;BME280;35838;49.134;9.212;2023-04-04T03:58:17;100774.44;;;1.36;54.14
49945;BME280;35838;49.134;9.212;2023-04-04T03:59:51;100769.59;;;1.42;53.89
49945;BME280;35838;49.134;9.212;2023-04-04T04:01:24;100783.19;;;1.41;53.80
49945;BME280;35838;49.134;9.212;2023-04-04T04:02:56;100781.41;;;1.40;53.73
49945;BME280;35838;49.134;9.212;2023-04-04T04:04:29;100783.13;;;1.39;53.93
49945;BME280;35838;49.134;9.212;2023-04-04T04:06:03;100784.78;;;1.39;54.17
49945;BME280;35838;49.134;9.212;2023-04-04T04:07:37;100781.94;;;1.33;54.10
49945;BME280;35838;49.134;9.212;2023-04-04T04:09:10;100786.25;;;1.34;53.99
49945;BME280;35838;49.134;9.212;2023-04-04T04:10:47;100787.91;;;1.33;53.89
49945;BME280;35838;49.134;9.212;2023-04-04T04:12:20;100786.09;;;1.31;54.04
49945;BME280;35838;49.134;9.212;2023-04-04T04:13:55;100787.84;;;1.32;53.95
49945;BME280;35838;49.134;9.212;2023-04-04T04:15:30;100787.06;;;1.33;53.87
49945;BME280;35838;49.134;9.212;2023-04-04T04:17:03;100786.19;;;1.32;53.58
49945;BME280;35838;49.134;9.212;2023-04-04T04:18:37;100787.28;;;1.37;53.85
49945;BME280;35838;49.134;9.212;2023-04-04T04:20:11;100784.50;;;1.33;53.90
49945;BME280;35838;49.134;9.212;2023-04-04T04:21:44;100787.84;;;1.32;54.07
49945;BME280;35838;49.134;9.212;2023-04-04T04:23:15;100781.72;;;1.28;53.96
49945;BME280;35838;49.134;9.212;2023-04-04T04:24:49;100780.19;;;1.32;54.17
49945;BME280;35838;49.134;9.212;2023-04-04T04:26:25;100787.00;;;1.31;54.59
49945;BME280;35838;49.134;9.212;2023-04-04T04:27:59;100780.75;;;1.26;54.37
49945;BME280;35838;49.134;9.212;2023-04-04T04:29:32;100783.53;;;1.31;54.50
49945;BME280;35838;49.134;9.212;2023-04-04T04:31:07;100782.75;;;1.32;54.09
49945;BME280;35838;49.134;9.212;2023-04-04T04:32:41;100786.09;;;1.31;54.47
49945;BME280;35838;49.134;9.212;2023-04-04T04:34:14;100776.59;;;1.28;54.59
49945;BME280;35838;49.134;9.212;2023-04-04T04:35:49;100779.16;;;1.28;54.70
49945;BME280;35838;49.134;9.212;2023-04-04T04:37:23;100783.25;;;1.24;54.66
49945;BME280;35838;49.134;9.212;2023-04-04T04:38:56;100781.44;;;1.22;54.72
49945;BME280;35838;49.134;9.212;2023-04-04T04:40:30;100782.53;;;1.27;54.73
49945;BME280;35838;49.134;9.212;2023-04-04T04:42:06;100780.69;;;1.24;54.81
49945;BME280;35838;49.134;9.212;2023-04-04T04:43:40;100782.69;;;1.30;54.81
49945;BME280;35838;49.134;9.212;2023-04-04T04:45:14;100788.00;;;1.35;54.74
49945;BME280;35838;49.134;9.212;2023-04-04T04:46:47;100785.25;;;1.30;54.66
49945;BME280;35838;49.134;9.212;2023-04-04T04:48:21;100783.78;;;1.17;55.00
49945;BME280;35838;49.134;9.212;2023-04-04T04:49:55;100786.56;;;1.22;54.93
49945;BME280;35838;49.134;9.212;2023-04-04T04:51:28;100787.56;;;1.25;54.70
49945;BME280;35838;49.134;9.212;2023-04-04T04:53:02;100785.53;;;1.18;54.85
49945;BME280;35838;49.134;9.212;2023-04-04T04:54:36;100786.56;;;1.22;55.06
49945;BME280;35838;49.134;9.212;2023-04-04T04:56:09;100783.56;;;1.13;55.25
49945;BME280;35838;49.134;9.212;2023-04-04T04:57:45;100778.66;;;1.17;55.36
49945;BME280;35838;49.134;9.212;2023-04-04T04:59:19;100777.75;;;1.17;55.45
49945;BME280;35838;49.134;9.212;2023-04-04T05:00:53;100782.75;;;1.14;55.52
49945;BME280;35838;49.134;9.212;2023-04-04T05:02:27;100784.47;;;1.15;55.23
49945;BME280;35838;49.134;9.212;2023-04-04T05:04:01;100782.97;;;1.18;55.12
49945;BME280;35838;49.134;9.212;2023-04-04T05:05:35;100785.59;;;1.20;55.23
49945;BME280;35838;49.134;9.212;2023-04-04T05:07:08;100788.00;;;1.17;55.54
49945;BME280;35838;49.134;9.212;2023-04-04T05:08:42;100790.56;;;1.17;54.82
49945;BME280;35838;49.134;9.212;2023-04-04T05:10:16;100785.53;;;1.18;54.66
49945;BME280;35838;49.134;9.212;2023-04-04T05:11:50;100785.22;;;1.12;54.89
49945;BME280;35838;49.134;9.212;2023-04-04T05:13:26;100787.78;;;1.12;55.04
49945;BME280;35838;49.134;9.212;2023-04-04T05:14:59;100786.75;;;1.08;55.20
49945;BME280;35838;49.134;9.212;2023-04-04T05:16:33;100787.47;;;1.06;55.22
49945;BME280;35838;49.134;9.212;2023-04-04T05:18:07;100786.97;;;1.13;55.43
49945;BME280;35838;49.134;9.212;2023-04-04T05:19:40;100788.56;;;1.11;55.20
49945;BME280;35838;49.134;9.212;2023-04-04T05:21:14;100787.53;;;1.07;55.52
49945;BME280;35838;49.134;9.212;2023-04-04T05:22:49;100788.16;;;1.20;55.58
49945;BME280;35838;49.134;9.212;2023-04-04T05:24:23;100786.97;;;1.13;55.06
49945;BME280;35838;49.134;9.212;2023-04-04T05:25:57;100788.44;;;1.08;55.24
49945;BME280;35838;49.134;9.212;2023-04-04T05:27:30;100786.56;;;1.22;54.75
49945;BME280;35838;49.134;9.212;2023-04-04T05:29:06;100785.81;;;1.24;54.68
49945;BME280;35838;49.134;9.212;2023-04-04T05:30:40;100786.69;;;1.25;54.43
49945;BME280;35838;49.134;9.212;2023-04-04T05:32:14;100786.78;;;1.27;54.81
49945;BME280;35838;49.134;9.212;2023-04-04T05:33:48;100797.56;;;1.39;54.83
49945;BME280;35838;49.134;9.212;2023-04-04T05:35:21;100795.00;;;1.39;55.00
49945;BME280;35838;49.134;9.212;2023-04-04T05:36:55;100792.16;;;1.33;55.07
49945;BME280;35838;49.134;9.212;2023-04-04T05:38:29;100792.69;;;1.25;55.05
49945;BME280;35838;49.134;9.212;2023-04-04T05:40:03;100782.75;;;1.32;54.82
49945;BME280;35838;49.134;9.212;2023-04-04T05:41:35;100795.75;;;1.36;54.82
49945;BME280;35838;49.134;9.212;2023-04-04T05:43:09;100793.25;;;1.38;54.63
49945;BME280;35838;49.134;9.212;2023-04-04T05:44:45;100794.88;;;1.36;55.30
49945;BME280;35838;49.134;9.212;2023-04-04T05:46:18;100792.97;;;1.32;55.34
49945;BME280;35838;49.134;9.212;2023-04-04T05:47:52;100797.78;;;1.44;54.91
49945;BME280;35838;49.134;9.212;2023-04-04T05:49:26;100797.00;;;1.45;55.00
49945;BME280;35838;49.134;9.212;2023-04-04T05:50:59;100790.69;;;1.38;55.58
49945;BME280;35838;49.134;9.212;2023-04-04T05:52:33;100797.06;;;1.28;55.52
49945;BME280;35838;49.134;9.212;2023-04-04T05:54:06;100795.47;;;1.30;55.38
49945;BME280;35838;49.134;9.212;2023-04-04T05:55:40;100801.44;;;1.31;55.21
49945;BME280;35838;49.134;9.212;2023-04-04T05:57:14;100796.78;;;1.40;54.77
49945;BME280;35838;49.134;9.212;2023-04-04T05:58:47;100792.88;;;1.48;54.83
49945;BME280;35838;49.134;9.212;2023-04-04T06:00:24;100801.16;;;1.43;54.91
49945;BME280;35838;49.134;9.212;2023-04-04T06:01:57;100803.22;;;1.50;55.02
49945;BME280;35838;49.134;9.212;2023-04-04T06:03:31;100802.25;;;1.48;54.67
49945;BME280;35838;49.134;9.212;2023-04-04T06:05:05;100794.13;;;1.56;54.31
49945;BME280;35838;49.134;9.212;2023-04-04T06:06:39;100795.88;;;1.58;54.21
49945;BME280;35838;49.134;9.212;2023-04-04T06:08:13;100795.94;;;1.59;54.26
49945;BME280;35838;49.134;9.212;2023-04-04T06:09:46;100802.31;;;1.49;54.04
49945;BME280;35838;49.134;9.212;2023-04-04T06:11:20;100802.47;;;1.52;53.87
49945;BME280;35838;49.134;9.212;2023-04-04T06:12:54;100804.34;;;1.56;54.63
49945;BME280;35838;49.134;9.212;2023-04-04T06:14:28;100801.16;;;1.61;54.81
49945;BME280;35838;49.134;9.212;2023-04-04T06:16:04;100804.78;;;1.66;53.85
49945;BME280;35838;49.134;9.212;2023-04-04T06:17:38;100806.97;;;1.76;53.90
49945;BME280;35838;49.134;9.212;2023-04-04T06:19:12;100802.81;;;1.78;53.46
49945;BME280;35838;49.134;9.212;2023-04-04T06:20:46;100807.72;;;1.74;53.73
49945;BME280;35838;49.134;9.212;2023-04-04T06:22:19;100801.69;;;1.73;53.82
49945;BME280;35838;49.134;9.212;2023-04-04T06:23:53;100802.88;;;1.80;52.77
49945;BME280;35838;49.134;9.212;2023-04-04T06:25:26;100803.50;;;1.94;53.25
49945;BME280;35838;49.134;9.212;2023-04-04T06:27:00;100801.09;;;1.97;53.64
49945;BME280;35838;49.134;9.212;2023-04-04T06:28:34;100802.22;;;2.03;53.09
49945;BME280;35838;49.134;9.212;2023-04-04T06:30:08;100801.09;;;1.97;53.70
49945;BME280;35838;49.134;9.212;2023-04-04T06:31:46;100803.56;;;1.95;53.34
49945;BME280;35838;49.134;9.212;2023-04-04T06:33:21;100800.94;;;1.94;52.54
49945;BME280;35838;49.134;9.212;2023-04-04T06:34:55;100796.09;;;2.00;52.90
49945;BME280;35838;49.134;9.212;2023-04-04T06:36:28;100794.53;;;2.03;52.80
49945;BME280;35838;49.134;9.212;2023-04-04T06:38:02;100795.66;;;2.09;52.82
49945;BME280;35838;49.134;9.212;2023-04-04T06:39:36;100800.28;;;2.17;52.66
49945;BME280;35838;49.134;9.212;2023-04-04T06:41:10;100802.38;;;2.07;52.70
49945;BME280;35838;49.134;9.212;2023-04-04T06:42:47;100799.75;;;2.05;52.50
49945;BME280;35838;49.134;9.212;2023-04-04T06:44:21;100797.66;;;2.16;52.76
49945;BME280;35838;49.134;9.212;2023-04-04T06:45:55;100803.66;;;2.16;52.96
49945;BME280;35838;49.134;9.212;2023-04-04T06:47:31;100803.53;;;2.13;52.11
49945;BME280;35838;49.134;9.212;2023-04-04T06:49:05;100807.47;;;2.25;51.40
49945;BME280;35838;49.134;9.212;2023-04-04T06:50:38;100799.94;;;2.29;52.00
49945;BME280;35838;49.134;9.212;2023-04-04T06:52:12;100795.16;;;2.17;51.72
49945;BME280;35838;49.134;9.212;2023-04-04T06:53:46;100800.44;;;2.21;51.07
49945;BME280;35838;49.134;9.212;2023-04-04T06:55:19;100800.44;;;2.21;51.68
49945;BME280;35838;49.134;9.212;2023-04-04T06:56:53;100798.13;;;2.27;52.18
49945;BME280;35838;49.134;9.212;2023-04-04T06:58:26;100801.59;;;2.27;51.80
49945;BME280;35838;49.134;9.212;2023-04-04T07:00:00;100801.50;;;2.26;51.27
49945;BME280;35838;49.134;9.212;2023-04-04T07:01:34;100799.78;;;2.25;52.01
49945;BME280;35838;49.134;9.212;2023-04-04T07:03:10;100791.13;;;2.42;52.00
49945;BME280;35838;49.134;9.212;2023-04-04T07:04:44;100795.78;;;2.31;50.89
49945;BME280;35838;49.134;9.212;2023-04-04T07:06:20;100794.28;;;2.17;51.24
49945;BME280;35838;49.134;9.212;2023-04-04T07:07:54;100798.31;;;2.31;51.39
49945;BME280;35838;49.134;9.212;2023-04-04T07:09:27;100803.53;;;2.33;50.92
49945;BME280;35838;49.134;9.212;2023-04-04T07:11:01;100789.22;;;2.38;51.41
49945;BME280;35838;49.134;9.212;2023-04-04T07:12:35;100797.13;;;2.43;51.40
49945;BME280;35838;49.134;9.212;2023-04-04T07:14:09;100795.22;;;2.58;51.72
49945;BME280;35838;49.134;9.212;2023-04-04T07:15:44;100797.34;;;2.69;51.31
49945;BME280;35838;49.134;9.212;2023-04-04T07:17:18;100794.84;;;2.70;50.78
49945;BME280;35838;49.134;9.212;2023-04-04T07:18:54;100794.44;;;2.80;50.38
49945;BME280;35838;49.134;9.212;2023-04-04T07:20:28;100786.31;;;2.91;49.98
49945;BME280;35838;49.134;9.212;2023-04-04T07:22:01;100792.88;;;3.05;50.72
49945;BME280;35838;49.134;9.212;2023-04-04T07:23:35;100788.72;;;3.09;49.84
49945;BME280;35838;49.134;9.212;2023-04-04T07:25:09;100791.63;;;3.17;50.24
49945;BME280;35838;49.134;9.212;2023-04-04T07:26:43;100787.38;;;3.17;49.25
49945;BME280;35838;49.134;9.212;2023-04-04T07:28:16;100788.03;;;3.34;48.72
49945;BME280;35838;49.134;9.212;2023-04-04T07:29:50;100793.31;;;3.37;49.04
49945;BME280;35838;49.134;9.212;2023-04-04T07:31:24;100784.78;;;3.38;49.18
49945;BME280;35838;49.134;9.212;2023-04-04T07:32:58;100788.63;;;3.50;48.77
49945;BME280;35838;49.134;9.212;2023-04-04T07:34:34;100793.25;;;3.58;49.11
49945;BME280;35838;49.134;9.212;2023-04-04T07:36:07;100795.88;;;3.60;48.42
49945;BME280;35838;49.134;9.212;2023-04-04T07:37:41;100796.78;;;3.60;47.64
49945;BME280;35838;49.134;9.212;2023-04-04T07:39:15;100786.69;;;3.65;48.03
49945;BME280;35838;49.134;9.212;2023-04-04T07:40:49;100784.44;;;3.52;48.37
49945;BME280;35838;49.134;9.212;2023-04-04T07:42:22;100781.25;;;3.57;48.47
49945;BME280;35838;49.134;9.212;2023-04-04T07:43:56;100779.19;;;3.71;48.22
49945;BME280;35838;49.134;9.212;2023-04-04T07:45:29;100787.44;;;3.85;47.94
49945;BME280;35838;49.134;9.212;2023-04-04T07:47:03;100776.50;;;3.91;47.19
49945;BME280;35838;49.134;9.212;2023-04-04T07:48:37;100782.69;;;3.96;47.50
49945;BME280;35838;49.134;9.212;2023-04-04T07:50:13;100780.22;;;3.99;48.00
49945;BME280;35838;49.134;9.212;2023-04-04T07:51:47;100780.56;;;4.08;47.83
49945;BME280;35838;49.134;9.212;2023-04-04T07:53:21;100782.84;;;4.01;46.54
49945;BME280;35838;49.134;9.212;2023-04-04T07:54:54;100788.50;;;4.15;46.88
49945;BME280;35838;49.134;9.212;2023-04-04T07:56:29;100774.44;;;4.29;46.17
49945;BME280;35838;49.134;9.212;2023-04-04T07:58:03;100774.56;;;4.32;46.54
49945;BME280;35838;49.134;9.212;2023-04-04T07:59:37;100779.91;;;4.38;46.03
49945;BME280;35838;49.134;9.212;2023-04-04T08:01:10;100782.47;;;4.38;45.59
49945;BME280;35838;49.134;9.212;2023-04-04T08:02:44;100772.91;;;4.34;45.52
49945;BME280;35838;49.134;9.212;2023-04-04T08:04:17;100773.28;;;4.45;45.52
49945;BME280;35838;49.134;9.212;2023-04-04T08:05:54;100773.97;;;4.41;44.49
49945;BME280;35838;49.134;9.212;2023-04-04T08:07:27;100770.25;;;4.57;44.79
49945;BME280;35838;49.134;9.212;2023-04-04T08:09:01;100775.06;;;4.72;46.76
49945;BME280;35838;49.134;9.212;2023-04-04T08:10:35;100775.41;;;4.83;46.89
49945;BME280;35838;49.134;9.212;2023-04-04T08:12:08;100766.91;;;4.85;45.60
49945;BME280;35838;49.134;9.212;2023-04-04T08:13:42;100768.59;;;4.83;44.50
49945;BME280;35838;49.134;9.212;2023-04-04T08:15:16;100769.75;;;4.93;45.28
49945;BME280;35838;49.134;9.212;2023-04-04T08:16:50;100771.13;;;5.09;45.37
49945;BME280;35838;49.134;9.212;2023-04-04T08:18:23;100779.16;;;5.18;44.24
49945;BME280;35838;49.134;9.212;2023-04-04T08:19:57;100774.66;;;5.13;41.31
49945;BME280;35838;49.134;9.212;2023-04-04T08:21:34;100772.47;;;4.98;42.35
49945;BME280;35838;49.134;9.212;2023-04-04T08:23:07;100774.81;;;5.17;42.96
49945;BME280;35838;49.134;9.212;2023-04-04T08:24:42;100766.88;;;5.11;42.34
49945;BME280;35838;49.134;9.212;2023-04-04T08:26:16;100769.28;;;5.32;44.43
49945;BME280;35838;49.134;9.212;2023-04-04T08:27:49;100774.06;;;5.49;45.35
49945;BME280;35838;49.134;9.212;2023-04-04T08:29:23;100757.28;;;5.06;42.06
49945;BME280;35838;49.134;9.212;2023-04-04T08:30:58;100769.72;;;4.92;42.06
49945;BME280;35838;49.134;9.212;2023-04-04T08:32:33;100768.09;;;4.95;43.06
49945;BME280;35838;49.134;9.212;2023-04-04T08:34:06;100770.50;;;5.16;43.95
49945;BME280;35838;49.134;9.212;2023-04-04T08:35:40;100761.63;;;5.07;41.28
49945;BME280;35838;49.134;9.212;2023-04-04T08:37:16;100763.38;;;5.37;42.72
49945;BME280;35838;49.134;9.212;2023-04-04T08:38:50;100769.00;;;5.52;42.04
49945;BME280;35838;49.134;9.212;2023-04-04T08:40:24;100764.09;;;5.60;40.79
49945;BME280;35838;49.134;9.212;2023-04-04T08:42:01;100772.88;;;5.67;40.38
49945;BME280;35838;49.134;9.212;2023-04-04T08:43:35;100768.19;;;5.82;40.66
49945;BME280;35838;49.134;9.212;2023-04-04T08:45:11;100767.19;;;5.77;38.91
49945;BME280;35838;49.134;9.212;2023-04-04T08:46:45;100770.78;;;5.84;41.40
49945;BME280;35838;49.134;9.212;2023-04-04T08:48:19;100768.63;;;5.97;41.44
49945;BME280;35838;49.134;9.212;2023-04-04T08:49:56;100758.56;;;6.05;40.69
49945;BME280;35838;49.134;9.212;2023-04-04T08:51:32;100765.69;;;5.85;38.51
49945;BME280;35838;49.134;9.212;2023-04-04T08:53:09;100766.16;;;6.01;41.48
49945;BME280;35838;49.134;9.212;2023-04-04T08:54:43;100763.09;;;6.14;41.43
49945;BME280;35838;49.134;9.212;2023-04-04T08:56:17;100762.22;;;6.14;41.48
49945;BME280;35838;49.134;9.212;2023-04-04T08:57:51;100759.00;;;6.22;41.09
49945;BME280;35838;49.134;9.212;2023-04-04T08:59:25;100760.34;;;6.40;41.04
49945;BME280;35838;49.134;9.212;2023-04-04T09:00:59;100753.03;;;6.55;40.50
49945;BME280;35838;49.134;9.212;2023-04-04T09:02:33;100762.59;;;6.59;41.88
49945;BME280;35838;49.134;9.212;2023-04-04T09:04:07;100764.84;;;6.47;38.21
49945;BME280;35838;49.134;9.212;2023-04-04T09:05:41;100764.78;;;6.46;39.53
49945;BME280;35838;49.134;9.212;2023-04-04T09:07:16;100766.88;;;6.59;41.63
49945;BME280;35838;49.134;9.212;2023-04-04T09:08:53;100756.50;;;6.57;38.34
49945;BME280;35838;49.134;9.212;2023-04-04T09:10:27;100771.47;;;6.71;38.47
49945;BME280;35838;49.134;9.212;2023-04-04T09:12:00;100763.38;;;6.57;38.24
49945;BME280;35838;49.134;9.212;2023-04-04T09:13:34;100766.38;;;6.39;37.05
49945;BME280;35838;49.134;9.212;2023-04-04T09:15:10;100758.84;;;6.48;40.28
49945;BME280;35838;49.134;9.212;2023-04-04T09:16:43;100763.41;;;6.58;40.04
49945;BME280;35838;49.134;9.212;2023-04-04T09:18:17;100751.28;;;6.54;37.96
49945;BME280;35838;49.134;9.212;2023-04-04T09:19:51;100753.94;;;6.25;37.37
49945;BME280;35838;49.134;9.212;2023-04-04T09:21:25;100755.03;;;6.34;42.21
49945;BME280;35838;49.134;9.212;2023-04-04T09:22:58;100765.13;;;6.58;41.39
49945;BME280;35838;49.134;9.212;2023-04-04T09:24:39;100757.38;;;6.56;39.42
49945;BME280;35838;49.134;9.212;2023-04-04T09:26:13;100767.28;;;6.76;41.10
49945;BME280;35838;49.134;9.212;2023-04-04T09:27:46;100751.31;;;6.89;40.18
49945;BME280;35838;49.134;9.212;2023-04-04T09:29:20;100754.81;;;6.92;38.53
49945;BME280;35838;49.134;9.212;2023-04-04T09:30:54;100756.53;;;6.25;35.33
49945;BME280;35838;49.134;9.212;2023-04-04T09:32:27;100752.47;;;6.35;38.30
49945;BME280;35838;49.134;9.212;2023-04-04T09:34:01;100759.63;;;6.46;38.56
49945;BME280;35838;49.134;9.212;2023-04-04T09:35:35;100761.47;;;6.50;37.57
49945;BME280;35838;49.134;9.212;2023-04-04T09:37:11;100760.34;;;6.40;38.64
49945;BME280;35838;49.134;9.212;2023-04-04T09:38:46;100755.75;;;6.62;40.82
49945;BME280;35838;49.134;9.212;2023-04-04T09:40:24;100759.66;;;6.79;40.42
49945;BME280;35838;49.134;9.212;2023-04-04T09:41:59;100762.81;;;7.04;40.05
49945;BME280;35838;49.134;9.212;2023-04-04T09:43:33;100757.88;;;7.13;40.61
49945;BME280;35838;49.134;9.212;2023-04-04T09:45:08;100764.66;;;7.08;39.16
49945;BME280;35838;49.134;9.212;2023-04-04T09:46:42;100761.03;;;7.00;37.94
49945;BME280;35838;49.134;9.212;2023-04-04T09:48:19;100759.16;;;6.94;37.47
49945;BME280;35838;49.134;9.212;2023-04-04T09:49:57;100753.91;;;6.91;37.92
49945;BME280;35838;49.134;9.212;2023-04-04T09:51:34;100749.09;;;6.70;36.77
49945;BME280;35838;49.134;9.212;2023-04-04T09:53:08;100750.34;;;6.86;39.08
49945;BME280;35838;49.134;9.212;2023-04-04T09:54:54;100754.84;;;6.95;39.69
49945;BME280;35838;49.134;9.212;2023-04-04T09:56:32;100755.00;;;7.01;37.52
49945;BME280;35838;49.134;9.212;2023-04-04T09:58:12;100761.03;;;7.00;36.36
49945;BME280;35838;49.134;9.212;2023-04-04T09:59:46;100747.94;;;6.94;36.97
49945;BME280;35838;49.134;9.212;2023-04-04T10:01:20;100755.19;;;7.09;37.55
49945;BME280;35838;49.134;9.212;2023-04-04T10:02:56;100753.56;;;7.12;36.11
49945;BME280;35838;49.134;9.212;2023-04-04T10:04:30;100752.09;;;7.24;39.39
49945;BME280;35838;49.134;9.212;2023-04-04T10:06:04;100753.16;;;7.32;37.68
49945;BME280;35838;49.134;9.212;2023-04-04T10:07:39;100749.44;;;7.20;37.24
49945;BME280;35838;49.134;9.212;2023-04-04T10:09:14;100752.41;;;7.36;39.22
49945;BME280;35838;49.134;9.212;2023-04-04T10:10:47;100749.09;;;7.43;38.33
49945;BME280;35838;49.134;9.212;2023-04-04T10:12:25;100755.53;;;7.62;39.34
49945;BME280;35838;49.134;9.212;2023-04-04T10:13:59;100753.19;;;7.73;37.67
49945;BME280;35838;49.134;9.212;2023-04-04T10:15:34;100748.91;;;7.75;37.20
49945;BME280;35838;49.134;9.212;2023-04-04T10:17:08;100752.28;;;7.71;36.39
49945;BME280;35838;49.134;9.212;2023-04-04T10:18:43;100749.00;;;7.80;38.16
49945;BME280;35838;49.134;9.212;2023-04-04T10:20:16;100746.94;;;7.62;34.56
49945;BME280;35838;49.134;9.212;2023-04-04T10:21:50;100749.97;;;7.44;35.67
49945;BME280;35838;49.134;9.212;2023-04-04T10:23:25;100747.47;;;7.48;36.95
49945;BME280;35838;49.134;9.212;2023-04-04T10:24:59;100748.94;;;7.77;39.60
49945;BME280;35838;49.134;9.212;2023-04-04T10:26:33;100751.72;;;7.86;39.17
49945;BME280;35838;49.134;9.212;2023-04-04T10:28:09;100735.56;;;7.98;39.84
49945;BME280;35838;49.134;9.212;2023-04-04T10:29:42;100746.25;;;8.13;41.07
49945;BME280;35838;49.134;9.212;2023-04-04T10:31:18;100734.00;;;8.05;38.04
49945;BME280;35838;49.134;9.212;2023-04-04T10:32:56;100727.91;;;8.01;36.43
49945;BME280;35838;49.134;9.212;2023-04-04T10:34:35;100735.56;;;7.96;36.73
49945;BME280;35838;49.134;9.212;2023-04-04T10:36:11;100734.25;;;8.19;39.84
49945;BME280;35838;49.134;9.212;2023-04-04T10:37:47;100729.91;;;8.14;36.92
49945;BME280;35838;49.134;9.212;2023-04-04T10:39:23;100741.47;;;7.49;35.36
49945;BME280;35838;49.134;9.212;2023-04-04T10:40:58;100741.31;;;7.42;36.18
49945;BME280;35838;49.134;9.212;2023-04-04T10:42:38;100733.28;;;7.69;39.22
49945;BME280;35838;49.134;9.212;2023-04-04T10:44:17;100742.13;;;7.80;39.46
49945;BME280;35838;49.134;9.212;2023-04-04T10:45:53;100727.13;;;8.05;39.87
49945;BME280;35838;49.134;9.212;2023-04-04T10:47:28;100727.63;;;8.33;42.39
49945;BME280;35838;49.134;9.212;2023-04-04T10:49:03;100735.91;;;8.61;41.31
49945;BME280;35838;49.134;9.212;2023-04-04T10:50:36;100730.28;;;7.92;36.04
49945;BME280;35838;49.134;9.212;2023-04-04T10:52:10;100729.13;;;8.20;38.02
49945;BME280;35838;49.134;9.212;2023-04-04T10:53:45;100732.25;;;8.48;40.86
49945;BME280;35838;49.134;9.212;2023-04-04T10:55:18;100734.44;;;8.75;40.76
49945;BME280;35838;49.134;9.212;2023-04-04T10:56:52;100736.97;;;8.71;37.57
49945;BME280;35838;49.134;9.212;2023-04-04T10:58:30;100736.03;;;8.67;37.83
49945;BME280;35838;49.134;9.212;2023-04-04T11:00:07;100729.13;;;8.68;38.04
49945;BME280;35838;49.134;9.212;2023-04-04T11:01:45;100729.16;;;8.69;38.52
49945;BME280;35838;49.134;9.212;2023-04-04T11:03:19;100726.56;;;8.69;37.30
49945;BME280;35838;49.134;9.212;2023-04-04T11:04:54;100721.34;;;8.66;34.98
49945;BME280;35838;49.134;9.212;2023-04-04T11:08:31;100716.88;;;8.56;35.06
49945;BME280;35838;49.134;9.212;2023-04-04T11:10:11;100714.00;;;8.43;36.72
49945;BME280;35838;49.134;9.212;2023-04-04T11:13:34;100708.66;;;8.32;34.02
49945;BME280;35838;49.134;9.212;2023-04-04T11:15:12;100702.63;;;8.32;35.77
49945;BME280;35838;49.134;9.212;2023-04-04T11:16:46;100705.13;;;8.27;37.49
49945;BME280;35838;49.134;9.212;2023-04-04T11:20:13;100704.66;;;8.49;35.85
49945;BME280;35838;49.134;9.212;2023-04-04T11:21:47;100703.94;;;8.56;37.90
49945;BME280;35838;49.134;9.212;2023-04-04T11:23:23;100704.25;;;8.76;39.75
49945;BME280;35838;49.134;9.212;2023-04-04T11:24:57;100705.22;;;8.83;37.37
49945;BME280;35838;49.134;9.212;2023-04-04T11:26:35;100696.47;;;8.74;38.23
49945;BME280;35838;49.134;9.212;2023-04-04T11:28:12;100705.78;;;8.65;36.08
49945;BME280;35838;49.134;9.212;2023-04-04T11:29:50;100700.38;;;8.51;37.41
49945;BME280;35838;49.134;9.212;2023-04-04T11:31:28;100702.31;;;8.62;39.12
49945;BME280;35838;49.134;9.212;2023-04-04T11:33:02;100697.00;;;8.55;36.80